Time;durP1;ratioP1;P1;durP2;ratioP2;P2;SDS_P1;SDS_P2;PMS_P1;PMS_P2;Temp;Humidity;BMP_temperature;BMP_pressure;BME280_temperature;BME280_humidity;BME280_pressure;Samples;Min_cycle;Max_cycle;Signal;HPM_P1;HPM_P2
2024/01/05 13:54:24;;;;;;;3.40;3.08;;;20.60;75.10;;;;;;6197366;23;20072;-54
2024/01/05 13:56:51;;;;;;;3.25;2.95;;;20.60;75.50;;;;;;6170786;23;20056;-52
2024/01/05 13:59:18;;;;;;;2.70;2.50;;;20.60;75.40;;;;;;6196920;23;20013;-53
2024/01/05 14:01:45;;;;;;;4.97;3.42;;;20.60;75.10;;;;;;6171270;23;20025;-52
2024/01/05 14:04:12;;;;;;;3.15;2.80;;;20.60;75.20;;;;;;6171339;23;20398;-53
2024/01/05 14:06:39;;;;;;;2.50;2.30;;;20.60;75.40;;;;;;6197113;23;20028;-54
2024/01/05 14:09:06;;;;;;;4.28;3.75;;;20.60;75.50;;;;;;6170834;23;20028;-53
2024/01/05 14:11:33;;;;;;;2.90;2.67;;;20.70;74.90;;;;;;6170475;23;20032;-53
2024/01/05 14:14:00;;;;;;;3.60;2.53;;;20.70;75.10;;;;;;6145180;23;20026;-53
2024/01/05 14:16:27;;;;;;;2.60;2.40;;;20.70;74.90;;;;;;6079122;23;20027;-54
2024/01/05 14:18:54;;;;;;;4.45;4.15;;;20.70;75.10;;;;;;6079359;23;20019;-52
2024/01/05 14:21:22;;;;;;;3.95;2.80;;;20.70;75.40;;;;;;6063497;23;20363;-53
2024/01/05 14:23:49;;;;;;;3.45;3.15;;;20.70;75.70;;;;;;6150637;23;21653;-52
2024/01/05 14:26:16;;;;;;;3.65;3.00;;;20.70;75.60;;;;;;6137622;23;20026;-54
2024/01/05 14:28:43;;;;;;;3.65;2.95;;;20.70;75.70;;;;;;6137601;23;20037;-54
2024/01/05 14:31:30;;;;;;;3.00;2.80;;;20.70;76.00;;;;;;6137875;23;20515;-55
2024/01/05 14:33:57;;;;;;;5.00;2.53;;;20.70;75.40;;;;;;6062298;23;27592;-55
2024/01/05 14:36:25;;;;;;;4.30;3.92;;;20.70;75.10;;;;;;6090425;23;177861;-55
2024/01/05 14:38:53;;;;;;;4.10;3.38;;;20.70;74.90;;;;;;6043112;23;20428;-55
2024/01/05 14:41:20;;;;;;;3.33;2.42;;;20.70;74.80;;;;;;6141937;23;20018;-55
2024/01/05 14:43:51;;;;;;;3.95;3.45;;;20.60;74.60;;;;;;6136361;23;20099;-55
2024/01/05 14:46:18;;;;;;;3.75;3.40;;;20.60;74.50;;;;;;6135412;23;31616;-55
2024/01/05 14:48:45;;;;;;;3.38;3.10;;;20.60;74.40;;;;;;6137494;23;20022;-55
2024/01/05 14:51:12;;;;;;;2.47;2.00;;;20.60;74.20;;;;;;6131383;23;20019;-54
2024/01/05 14:53:39;;;;;;;2.67;2.47;;;20.50;73.90;;;;;;6158191;23;20093;-55
2024/01/05 14:56:14;;;;;;;3.35;3.05;;;20.50;74.00;;;;;;6167252;23;20033;-55
2024/01/05 14:58:42;;;;;;;3.15;2.95;;;20.50;73.80;;;;;;6157172;23;20025;-54
2024/01/05 15:01:11;;;;;;;3.28;2.10;;;20.50;73.80;;;;;;6160751;23;20029;-53
2024/01/05 15:03:39;;;;;;;5.15;3.25;;;20.50;74.60;;;;;;6158792;23;20479;-53
2024/01/05 15:06:07;;;;;;;2.75;2.55;;;20.40;76.10;;;;;;6158735;23;20026;-53
2024/01/05 15:08:35;;;;;;;4.78;3.33;;;20.40;75.80;;;;;;6160144;23;22567;-53
2024/01/05 15:11:03;;;;;;;3.42;2.75;;;20.50;76.50;;;;;;6160722;23;20017;-56
2024/01/05 15:13:30;;;;;;;5.97;2.20;;;20.50;76.50;;;;;;6160660;23;20014;-53
2024/01/05 15:15:58;;;;;;;4.05;3.58;;;20.50;77.00;;;;;;6160692;23;20026;-53
2024/01/05 15:18:26;;;;;;;5.53;2.40;;;20.50;77.70;;;;;;6160654;23;20018;-54
2024/01/05 15:20:54;;;;;;;4.00;3.35;;;20.60;78.10;;;;;;6160788;23;20021;-54
2024/01/05 15:23:21;;;;;;;3.40;2.75;;;20.60;78.40;;;;;;6158910;23;20022;-54
2024/01/05 15:25:48;;;;;;;4.55;2.30;;;20.60;78.40;;;;;;6160339;23;21067;-54
2024/01/05 15:28:15;;;;;;;3.70;3.40;;;20.60;78.20;;;;;;6159229;23;20070;-54
2024/01/05 15:30:42;;;;;;;4.90;3.25;;;20.70;77.80;;;;;;6160153;23;20022;-55
2024/01/05 15:33:09;;;;;;;3.70;2.78;;;20.70;77.80;;;;;;6160816;23;20018;-55
2024/01/05 15:35:36;;;;;;;2.30;2.00;;;20.70;77.70;;;;;;6134168;23;20456;-54
2024/01/05 15:38:04;;;;;;;3.28;2.55;;;20.70;77.70;;;;;;6160709;23;20053;-56
2024/01/05 15:40:31;;;;;;;3.55;2.70;;;20.70;78.40;;;;;;6158469;23;20025;-54
2024/01/05 15:42:59;;;;;;;4.15;3.80;;;20.70;78.50;;;;;;6160788;23;20018;-53
2024/01/05 15:45:31;;;;;;;3.35;3.03;;;20.70;78.50;;;;;;6160303;23;20113;-55
2024/01/05 15:47:59;;;;;;;3.17;2.88;;;20.70;78.30;;;;;;6183720;23;20073;-54
2024/01/05 15:50:27;;;;;;;3.72;3.38;;;20.80;78.20;;;;;;6160664;23;20018;-54
2024/01/05 15:52:54;;;;;;;2.88;2.60;;;20.80;78.10;;;;;;6159652;23;20022;-55
2024/01/05 15:55:22;;;;;;;2.75;2.40;;;20.80;78.10;;;;;;6160545;23;20022;-54
2024/01/05 15:57:49;;;;;;;2.97;2.75;;;20.90;77.80;;;;;;6160309;23;20530;-53
2024/01/05 16:00:16;;;;;;;2.60;2.50;;;20.90;77.90;;;;;;6160526;23;20014;-52
2024/01/05 16:02:43;;;;;;;2.13;1.92;;;20.90;78.30;;;;;;6153719;23;20100;-52
2024/01/05 16:05:10;;;;;;;2.60;2.03;;;20.90;77.40;;;;;;6158726;23;20026;-52
2024/01/05 16:07:37;;;;;;;4.40;3.10;;;20.90;76.80;;;;;;6155161;23;20028;-52
2024/01/05 16:10:05;;;;;;;3.00;2.75;;;20.90;76.90;;;;;;6183121;23;20017;-52
2024/01/05 16:12:32;;;;;;;2.78;2.05;;;20.80;76.60;;;;;;6160308;23;20093;-53
2024/01/05 16:14:59;;;;;;;4.78;3.10;;;20.80;76.20;;;;;;6160143;23;20029;-52
2024/01/05 16:17:33;;;;;;;3.05;2.75;;;20.80;76.50;;;;;;6158759;23;20025;-51
2024/01/05 16:20:00;;;;;;;8.02;4.32;;;20.80;76.70;;;;;;6160342;23;20089;-52
2024/01/05 16:22:29;;;;;;;3.65;2.28;;;20.80;77.00;;;;;;6160533;23;20077;-51
2024/01/05 16:24:57;;;;;;;4.40;2.35;;;20.80;76.90;;;;;;6159984;23;20018;-51
2024/01/05 16:27:23;;;;;;;3.28;3.03;;;20.80;77.10;;;;;;6160264;23;20440;-52
2024/01/05 16:29:50;;;;;;;3.35;2.10;;;20.80;76.80;;;;;;6159699;23;26916;-52
2024/01/05 16:32:18;;;;;;;7.85;2.83;;;20.80;76.80;;;;;;6158764;23;20021;-52
2024/01/05 16:34:46;;;;;;;3.25;1.95;;;20.80;77.00;;;;;;6160000;23;20018;-52
2024/01/05 16:37:14;;;;;;;8.38;2.88;;;20.80;76.80;;;;;;6160360;23;20050;-53
2024/01/05 16:39:40;;;;;;;5.28;2.42;;;20.70;77.30;;;;;;6160084;23;20018;-53
2024/01/05 16:42:11;;;;;;;3.72;2.50;;;20.70;76.90;;;;;;6158782;23;20026;-51
2024/01/05 16:44:41;;;;;;;2.50;2.03;;;20.70;76.50;;;;;;6183558;23;20347;-51
2024/01/05 16:47:08;;;;;;;2.15;2.00;;;20.70;76.80;;;;;;6158722;23;20049;-51
2024/01/05 16:49:35;;;;;;;4.13;3.55;;;20.70;76.70;;;;;;6159701;23;26980;-52
2024/01/05 16:52:03;;;;;;;2.90;2.60;;;20.70;77.10;;;;;;6158250;23;20077;-51
2024/01/05 16:54:30;;;;;;;4.63;2.40;;;20.70;76.80;;;;;;6159868;23;20317;-51
2024/01/05 16:56:57;;;;;;;2.70;2.50;;;20.70;76.90;;;;;;6158358;23;20459;-51
2024/01/05 16:59:24;;;;;;;3.65;2.40;;;20.70;77.00;;;;;;6160252;23;20018;-51
2024/01/05 17:01:51;;;;;;;2.72;2.22;;;20.70;76.60;;;;;;6159966;23;20022;-52
2024/01/05 17:04:21;;;;;;;4.57;2.38;;;20.70;76.40;;;;;;6160181;23;20471;-53
2024/01/05 17:06:51;;;;;;;3.50;2.50;;;20.70;76.40;;;;;;6159707;23;20151;-52
2024/01/05 17:09:19;;;;;;;3.03;2.28;;;20.70;76.40;;;;;;6178838;23;20018;-52
2024/01/05 17:11:46;;;;;;;2.13;1.98;;;20.70;76.40;;;;;;6160084;23;20025;-51
2024/01/05 17:14:13;;;;;;;3.08;2.75;;;20.70;76.50;;;;;;6158708;23;20022;-51
2024/01/05 17:16:40;;;;;;;3.08;2.78;;;20.70;76.50;;;;;;6160077;23;20025;-53
2024/01/05 17:19:08;;;;;;;2.40;2.05;;;20.70;76.40;;;;;;6158251;23;20073;-51
2024/01/05 17:21:40;;;;;;;3.50;3.30;;;20.70;76.30;;;;;;6160021;23;20044;-51
2024/01/05 17:24:07;;;;;;;2.97;2.78;;;20.70;76.40;;;;;;6160120;23;20028;-52
2024/01/05 17:26:38;;;;;;;1.98;1.88;;;20.70;76.40;;;;;;6160036;23;20447;-51
2024/01/05 17:29:06;;;;;;;2.70;2.50;;;20.70;76.60;;;;;;6159956;23;20595;-50
2024/01/05 17:31:33;;;;;;;2.53;2.33;;;20.70;75.90;;;;;;6160167;23;20018;-50
2024/01/05 17:34:01;;;;;;;2.85;2.58;;;20.60;75.80;;;;;;6158015;23;20054;-52
2024/01/05 17:36:29;;;;;;;2.00;1.63;;;20.60;76.00;;;;;;6159938;23;20447;-51
2024/01/05 17:38:57;;;;;;;3.42;2.42;;;20.60;76.10;;;;;;6159571;23;20017;-52
2024/01/05 17:41:24;;;;;;;1.92;1.75;;;20.60;76.20;;;;;;6183268;23;20056;-52
2024/01/05 17:43:51;;;;;;;1.90;1.80;;;20.60;76.00;;;;;;6159904;23;20018;-52
2024/01/05 17:46:18;;;;;;;3.22;2.97;;;20.60;75.90;;;;;;6182617;23;20022;-52
2024/01/05 17:48:45;;;;;;;3.17;2.97;;;20.60;76.10;;;;;;6159550;23;20022;-52
2024/01/05 17:51:12;;;;;;;2.40;2.30;;;20.60;76.10;;;;;;6159908;23;20018;-52
2024/01/05 17:53:43;;;;;;;1.90;1.80;;;20.60;76.00;;;;;;6158083;23;20030;-52
2024/01/05 17:56:25;;;;;;;3.85;3.55;;;20.60;75.70;;;;;;6134335;23;20517;-52
2024/01/05 17:58:52;;;;;;;3.35;3.15;;;20.60;75.50;;;;;;6159609;23;20052;-52
2024/01/05 18:01:20;;;;;;;1.65;1.55;;;20.50;75.70;;;;;;6183082;23;20018;-52
2024/01/05 18:03:47;;;;;;;1.90;1.80;;;20.50;75.60;;;;;;6159076;23;22408;-52
2024/01/05 18:06:14;;;;;;;3.20;3.10;;;20.50;75.90;;;;;;6158056;23;20014;-52
2024/01/05 18:08:41;;;;;;;3.08;1.73;;;20.50;75.50;;;;;;6159620;23;20029;-52
2024/01/05 18:11:09;;;;;;;2.15;2.05;;;20.50;75.10;;;;;;6159399;23;20495;-52
2024/01/05 18:13:36;;;;;;;3.17;3.08;;;20.50;75.30;;;;;;6154821;23;20058;-52
2024/01/05 18:16:03;;;;;;;1.70;1.60;;;20.50;75.20;;;;;;6182400;23;20018;-52
2024/01/05 18:18:35;;;;;;;3.33;3.15;;;20.50;75.50;;;;;;6159176;23;20022;-52
2024/01/05 18:21:03;;;;;;;1.85;1.75;;;20.50;75.40;;;;;;6158146;23;20018;-52
2024/01/05 18:23:30;;;;;;;3.15;3.03;;;20.50;75.10;;;;;;6153527;23;22908;-52
2024/01/05 18:25:57;;;;;;;1.70;1.60;;;20.40;74.90;;;;;;6182003;23;20022;-52
2024/01/05 18:28:23;;;;;;;2.40;2.20;;;20.40;74.90;;;;;;6157144;23;20026;-52
2024/01/05 18:30:50;;;;;;;1.65;1.55;;;20.40;75.30;;;;;;6159126;23;20023;-52
2024/01/05 18:33:17;;;;;;;2.70;2.60;;;20.40;74.70;;;;;;6159903;23;20022;-52
2024/01/05 18:35:46;;;;;;;1.80;1.70;;;20.40;75.10;;;;;;6159042;23;20380;-52
2024/01/05 18:38:14;;;;;;;3.05;2.85;;;20.40;75.00;;;;;;6160334;23;20046;-52
2024/01/05 18:40:41;;;;;;;2.15;1.95;;;20.40;74.80;;;;;;6160204;23;23640;-53
2024/01/05 18:43:12;;;;;;;4.35;2.40;;;20.40;75.60;;;;;;6160135;23;20026;-53
2024/01/05 18:45:39;;;;;;;2.58;2.38;;;20.40;76.10;;;;;;6160551;23;20014;-53
2024/01/05 18:48:06;;;;;;;1.90;1.70;;;20.40;76.60;;;;;;6160270;23;20028;-51
2024/01/05 18:50:37;;;;;;;2.55;1.92;;;20.40;77.30;;;;;;6183768;23;20499;-52
2024/01/05 18:53:04;;;;;;;3.00;2.42;;;20.40;77.00;;;;;;6159412;23;20021;-53
2024/01/05 18:55:31;;;;;;;2.22;2.03;;;20.40;77.00;;;;;;6160299;23;20014;-52
2024/01/05 18:57:58;;;;;;;3.03;2.08;;;20.50;77.20;;;;;;6158350;23;20026;-52
2024/01/05 19:00:27;;;;;;;2.30;1.80;;;20.50;77.20;;;;;;6160559;23;20018;-50
2024/01/05 19:02:54;;;;;;;1.92;1.83;;;20.50;77.10;;;;;;6160318;23;20041;-52
2024/01/05 19:05:21;;;;;;;2.15;1.80;;;20.60;76.70;;;;;;6158716;23;20025;-53
2024/01/05 19:07:48;;;;;;;4.45;2.30;;;20.60;76.80;;;;;;6158592;23;20026;-51
2024/01/05 19:10:15;;;;;;;2.00;1.90;;;20.60;77.00;;;;;;6160294;23;20025;-53
2024/01/05 19:12:42;;;;;;;3.75;1.98;;;20.70;76.80;;;;;;6160095;23;22634;-52
2024/01/05 19:15:10;;;;;;;2.70;2.50;;;20.70;76.40;;;;;;6160161;23;20018;-53
2024/01/05 19:17:37;;;;;;;5.75;3.00;;;20.70;76.50;;;;;;6160381;23;20021;-52
2024/01/05 19:20:06;;;;;;;2.45;2.05;;;20.70;76.80;;;;;;6160338;23;20069;-52
2024/01/05 19:22:37;;;;;;;3.03;2.80;;;20.70;76.70;;;;;;6155201;23;20061;-52
2024/01/05 19:25:04;;;;;;;4.10;1.75;;;20.70;76.70;;;;;;6160267;23;20014;-54
2024/01/05 19:27:31;;;;;;;3.22;2.60;;;20.70;76.70;;;;;;6160339;23;20018;-53
2024/01/05 19:29:59;;;;;;;2.35;2.20;;;20.70;76.60;;;;;;6154933;23;20025;-52
2024/01/05 19:32:27;;;;;;;3.28;3.17;;;20.70;76.30;;;;;;6160194;23;20026;-51
2024/01/05 19:34:57;;;;;;;2.45;2.00;;;20.70;76.60;;;;;;6160226;23;20042;-55
2024/01/05 19:37:24;;;;;;;2.45;2.22;;;20.70;76.40;;;;;;6158833;23;20029;-53
2024/01/05 19:39:52;;;;;;;2.22;2.03;;;20.70;76.60;;;;;;6183610;23;20089;-55
2024/01/05 19:42:20;;;;;;;2.60;2.40;;;20.70;76.10;;;;;;6175951;23;20057;-52
2024/01/05 19:44:47;;;;;;;2.78;2.08;;;20.80;76.40;;;;;;6160061;23;20434;-53
2024/01/05 19:47:16;;;;;;;2.40;2.20;;;20.70;76.40;;;;;;6160094;23;20018;-54
2024/01/05 19:49:42;;;;;;;2.38;2.15;;;20.80;76.30;;;;;;6160409;23;20570;-51
2024/01/05 19:52:10;;;;;;;2.20;2.10;;;20.80;76.20;;;;;;6017842;23;20082;-53
2024/01/05 19:54:38;;;;;;;2.95;2.78;;;20.70;76.70;;;;;;6140838;23;20025;-53
2024/01/05 19:57:05;;;;;;;2.60;2.50;;;20.70;76.40;;;;;;6159990;23;20474;-52
